Time;durP1;ratioP1;P1;durP2;ratioP2;P2;SDS_P1;SDS_P2;PMS_P1;PMS_P2;Temp;Humidity;BMP_temperature;BMP_pressure;BME280_temperature;BME280_humidity;BME280_pressure;Samples;Min_cycle;Max_cycle;Signal;HPM_P1;HPM_P2
2022/07/08 00:02:23;;;;;;;1.40;1.30;;;23.20;46.60;;;;;;4934062;29;20237;-58
2022/07/08 00:04:48;;;;;;;1.27;1.17;;;23.20;46.60;;;;;;4939293;29;20197;-56
2022/07/08 00:07:14;;;;;;;1.30;1.20;;;23.20;46.60;;;;;;4936988;29;20425;-58
2022/07/08 00:09:40;;;;;;;1.30;1.20;;;23.20;46.60;;;;;;4936647;29;20225;-56
2022/07/08 00:12:06;;;;;;;1.30;1.20;;;23.20;46.60;;;;;;4940598;29;20781;-55
2022/07/08 00:14:31;;;;;;;1.40;1.30;;;23.20;46.60;;;;;;4938383;29;20711;-55
2022/07/08 00:16:58;;;;;;;1.53;1.20;;;23.20;46.60;;;;;;4935055;29;20445;-56
2022/07/08 00:19:25;;;;;;;1.30;1.20;;;23.20;46.60;;;;;;4933110;29;21104;-55
2022/07/08 00:21:51;;;;;;;1.20;1.10;;;23.20;46.60;;;;;;4934915;29;20529;-58
2022/07/08 00:24:17;;;;;;;1.40;1.30;;;23.20;46.60;;;;;;4938079;29;20508;-56
2022/07/08 00:26:43;;;;;;;1.30;1.20;;;23.20;46.70;;;;;;4937464;29;20193;-59
2022/07/08 00:29:09;;;;;;;1.30;1.20;;;23.20;46.60;;;;;;4936419;29;20425;-57
2022/07/08 00:31:35;;;;;;;1.10;1.00;;;23.20;46.60;;;;;;4934783;29;20211;-56
2022/07/08 00:34:01;;;;;;;1.47;1.37;;;23.20;46.60;;;;;;4940578;29;20220;-56
2022/07/08 00:36:27;;;;;;;1.40;1.30;;;23.20;46.60;;;;;;4934028;29;20877;-56
2022/07/08 00:38:53;;;;;;;1.27;1.17;;;23.20;46.60;;;;;;4941417;29;20186;-56
2022/07/08 00:41:20;;;;;;;1.30;1.20;;;23.20;46.60;;;;;;4939616;29;20241;-56
2022/07/08 00:43:47;;;;;;;1.53;1.43;;;23.20;46.60;;;;;;4934412;29;20517;-56
2022/07/08 00:46:16;;;;;;;1.63;1.53;;;23.20;46.60;;;;;;4942379;29;20857;-60
2022/07/08 00:48:43;;;;;;;1.30;1.20;;;23.20;46.70;;;;;;4933636;29;20436;-58
2022/07/08 00:51:12;;;;;;;1.63;1.53;;;23.20;46.60;;;;;;4936395;29;20818;-58
2022/07/08 00:53:40;;;;;;;1.20;1.10;;;23.20;46.60;;;;;;4936438;29;20468;-59
2022/07/08 00:56:08;;;;;;;1.30;1.20;;;23.20;46.60;;;;;;4940814;29;20487;-56
2022/07/08 00:58:36;;;;;;;1.40;1.30;;;23.20;46.60;;;;;;4933357;29;20459;-56
2022/07/08 01:01:02;;;;;;;1.30;1.20;;;23.20;46.60;;;;;;4935752;29;20436;-56
2022/07/08 01:03:29;;;;;;;1.47;1.20;;;23.20;46.60;;;;;;4937281;29;20433;-58
2022/07/08 01:05:56;;;;;;;1.30;1.20;;;23.20;46.60;;;;;;4938119;29;20424;-55
2022/07/08 01:08:23;;;;;;;1.20;1.10;;;23.20;46.60;;;;;;4933840;29;20479;-56
2022/07/08 01:10:49;;;;;;;1.30;1.20;;;23.20;46.60;;;;;;4938586;29;20431;-56
2022/07/08 01:13:17;;;;;;;1.50;1.40;;;23.20;46.60;;;;;;4934972;29;20516;-62
2022/07/08 01:15:44;;;;;;;1.50;1.40;;;23.20;46.70;;;;;;4940262;29;20436;-60
2022/07/08 01:18:18;;;;;;;1.30;1.20;;;23.20;46.70;;;;;;4934986;29;20904;-56
2022/07/08 01:20:45;;;;;;;1.50;1.40;;;23.20;46.60;;;;;;4938828;29;20437;-61
2022/07/08 01:23:11;;;;;;;1.80;1.30;;;23.20;46.60;;;;;;4936297;29;20932;-59
2022/07/08 01:25:37;;;;;;;1.40;1.30;;;23.20;46.60;;;;;;4936086;29;20443;-62
2022/07/08 01:28:03;;;;;;;1.73;1.63;;;23.20;46.70;;;;;;4938149;29;20277;-57
2022/07/08 01:30:29;;;;;;;1.30;1.20;;;23.20;46.70;;;;;;4937267;29;20855;-56
2022/07/08 01:32:55;;;;;;;1.40;1.30;;;23.20;46.60;;;;;;4936644;29;20508;-55
2022/07/08 01:35:20;;;;;;;1.23;1.13;;;23.20;47.30;;;;;;4919388;29;20851;-55
2022/07/08 01:37:46;;;;;;;1.20;1.10;;;23.20;46.60;;;;;;4938228;29;20267;-56
2022/07/08 01:40:12;;;;;;;1.07;1.07;;;23.20;46.70;;;;;;4937317;29;20186;-59
2022/07/08 01:42:38;;;;;;;1.53;1.20;;;23.20;46.70;;;;;;4926798;29;20239;-57
2022/07/08 01:45:05;;;;;;;1.20;1.10;;;23.20;46.70;;;;;;4904730;29;20180;-64
2022/07/08 01:47:30;;;;;;;1.27;1.17;;;23.20;46.60;;;;;;4906163;29;20418;-56
2022/07/08 01:49:56;;;;;;;1.20;1.10;;;23.20;46.60;;;;;;4896684;29;21297;-57
2022/07/08 01:52:22;;;;;;;1.20;1.10;;;23.20;46.60;;;;;;4911974;29;20263;-56
2022/07/08 01:54:50;;;;;;;1.40;1.30;;;23.20;46.60;;;;;;4917438;29;20223;-56
2022/07/08 01:57:18;;;;;;;1.10;1.00;;;23.20;46.60;;;;;;4914511;29;20183;-57
2022/07/08 01:59:49;;;;;;;1.20;1.10;;;23.20;46.60;;;;;;4908763;29;20508;-59
2022/07/08 02:02:18;;;;;;;1.20;1.10;;;23.20;46.60;;;;;;4912570;29;20430;-55
2022/07/08 02:04:44;;;;;;;1.27;1.17;;;23.20;46.60;;;;;;4908307;29;20439;-57
2022/07/08 02:07:10;;;;;;;1.50;1.40;;;23.20;46.70;;;;;;4912119;29;20517;-56
2022/07/08 02:09:38;;;;;;;1.47;1.37;;;23.20;46.70;;;;;;4914156;29;20196;-56
2022/07/08 02:12:20;;;;;;;1.33;1.23;;;23.20;46.70;;;;;;4918030;29;20434;-57
2022/07/08 02:15:03;;;;;;;1.30;1.20;;;23.20;46.60;;;;;;4912179;29;20434;-56
2022/07/08 02:17:37;;;;;;;1.30;1.20;;;23.20;46.60;;;;;;4910889;29;20457;-57
2022/07/08 02:20:08;;;;;;;1.30;1.20;;;23.20;46.70;;;;;;4906593;29;20436;-58
2022/07/08 02:22:35;;;;;;;1.30;1.20;;;23.20;46.60;;;;;;4914304;29;20434;-56
2022/07/08 02:25:01;;;;;;;1.30;1.20;;;23.20;46.70;;;;;;4910742;29;20430;-56
2022/07/08 02:27:26;;;;;;;1.33;1.23;;;23.20;46.70;;;;;;4911588;29;20762;-57
2022/07/08 02:29:53;;;;;;;1.40;1.30;;;23.20;46.60;;;;;;4915210;29;20635;-56
2022/07/08 02:32:18;;;;;;;1.10;1.10;;;23.20;46.60;;;;;;4911263;29;20481;-59
2022/07/08 02:34:44;;;;;;;1.30;1.20;;;23.20;46.70;;;;;;4910970;29;20183;-57
2022/07/08 02:37:10;;;;;;;1.30;1.20;;;23.20;46.60;;;;;;4911941;29;20180;-56
2022/07/08 02:39:36;;;;;;;1.93;1.20;;;23.20;46.70;;;;;;4913625;29;20450;-55
2022/07/08 02:42:04;;;;;;;1.30;1.20;;;23.20;46.60;;;;;;4920469;29;20240;-55
2022/07/08 02:44:30;;;;;;;0.93;0.93;;;23.20;47.40;;;;;;4939339;29;20178;-56
2022/07/08 02:46:55;;;;;;;1.40;1.30;;;23.20;46.70;;;;;;4941603;29;20421;-56
2022/07/08 02:49:22;;;;;;;1.30;1.20;;;23.20;46.70;;;;;;4941017;29;20201;-56
2022/07/08 02:51:48;;;;;;;1.10;1.00;;;23.20;46.70;;;;;;4939320;29;20666;-57
2022/07/08 02:54:13;;;;;;;1.40;1.30;;;23.20;46.80;;;;;;4939091;29;20459;-58
2022/07/08 02:56:39;;;;;;;1.40;1.30;;;23.20;46.70;;;;;;4938362;29;20421;-59
2022/07/08 02:59:05;;;;;;;1.30;1.20;;;23.20;46.60;;;;;;4940829;29;20205;-58
2022/07/08 03:01:31;;;;;;;1.30;1.20;;;23.20;46.70;;;;;;4935576;29;20912;-58
2022/07/08 03:03:57;;;;;;;1.17;1.10;;;23.20;46.70;;;;;;4938944;29;20281;-55
2022/07/08 03:06:23;;;;;;;1.33;1.23;;;23.20;46.70;;;;;;4939110;29;20519;-57
2022/07/08 03:08:49;;;;;;;1.40;1.30;;;23.20;46.70;;;;;;4941665;29;20195;-60
2022/07/08 03:11:15;;;;;;;1.40;1.10;;;23.20;46.70;;;;;;4936456;29;20448;-60
2022/07/08 03:13:41;;;;;;;1.50;1.40;;;23.20;46.70;;;;;;4939157;29;20211;-56
2022/07/08 03:16:07;;;;;;;3.30;1.20;;;23.20;46.70;;;;;;4936147;29;20452;-57
2022/07/08 03:18:35;;;;;;;1.30;1.20;;;23.20;46.70;;;;;;4939078;29;20193;-58
2022/07/08 03:21:03;;;;;;;1.30;1.20;;;23.20;46.70;;;;;;4937219;29;20429;-56
2022/07/08 03:23:29;;;;;;;1.40;1.30;;;23.20;46.80;;;;;;4941387;29;20634;-59
2022/07/08 03:25:55;;;;;;;1.20;1.10;;;23.20;46.70;;;;;;4941134;29;20425;-56
2022/07/08 03:28:21;;;;;;;1.40;1.30;;;23.20;46.70;;;;;;4936252;29;20459;-56
2022/07/08 03:30:47;;;;;;;1.30;1.17;;;23.20;46.70;;;;;;4937659;29;20191;-55
2022/07/08 03:33:13;;;;;;;1.30;1.20;;;23.20;46.70;;;;;;4937120;29;20457;-56
2022/07/08 03:35:39;;;;;;;1.50;1.40;;;23.20;46.70;;;;;;4937354;29;20454;-58
2022/07/08 03:38:05;;;;;;;1.37;1.20;;;23.20;46.70;;;;;;4942781;29;20202;-55
2022/07/08 03:43:15;;;;;;;1.30;1.20;;;23.20;46.60;;;;;;4938381;29;20364;-58
2022/07/08 03:45:41;;;;;;;1.33;1.20;;;23.20;46.70;;;;;;4937234;29;20424;-59
2022/07/08 03:48:07;;;;;;;1.60;1.50;;;23.20;46.60;;;;;;4938702;29;20764;-58
2022/07/08 03:50:33;;;;;;;1.17;1.10;;;23.20;46.60;;;;;;4937243;29;20194;-56
2022/07/08 03:52:58;;;;;;;1.03;1.00;;;23.20;46.70;;;;;;4938725;29;21425;-58
2022/07/08 03:55:25;;;;;;;1.20;1.10;;;23.20;46.70;;;;;;4939035;29;20190;-59
2022/07/08 03:57:51;;;;;;;1.30;1.20;;;23.20;46.70;;;;;;4940326;29;20190;-55
2022/07/08 04:00:19;;;;;;;1.33;1.23;;;23.20;46.70;;;;;;4935032;29;20466;-57
2022/07/08 04:02:48;;;;;;;1.17;1.07;;;23.20;46.70;;;;;;4935771;28;20525;-63
2022/07/08 04:05:13;;;;;;;1.50;1.40;;;23.20;46.70;;;;;;4936326;29;20424;-57
2022/07/08 04:07:40;;;;;;;1.40;1.30;;;23.20;46.70;;;;;;4940678;29;20986;-58
2022/07/08 04:10:07;;;;;;;1.40;1.20;;;23.20;46.60;;;;;;4943231;29;20186;-55
2022/07/08 04:12:33;;;;;;;1.20;1.10;;;23.20;46.70;;;;;;4941479;28;20526;-57
2022/07/08 04:14:59;;;;;;;0.90;0.90;;;23.20;46.70;;;;;;4938710;29;20848;-62
2022/07/08 04:17:25;;;;;;;1.10;1.00;;;23.20;46.70;;;;;;4935757;29;20189;-59
2022/07/08 04:19:50;;;;;;;1.20;1.10;;;23.20;46.70;;;;;;4940565;29;20420;-56
2022/07/08 04:22:16;;;;;;;1.30;1.20;;;23.20;47.50;;;;;;4933846;29;20234;-63
2022/07/08 04:24:42;;;;;;;1.10;1.10;;;23.20;46.70;;;;;;4937294;29;20182;-56
2022/07/08 04:27:08;;;;;;;1.40;1.30;;;23.20;46.70;;;;;;4934329;29;20193;-57
2022/07/08 04:29:33;;;;;;;1.30;1.20;;;23.20;46.70;;;;;;4936896;29;20197;-56
2022/07/08 04:31:59;;;;;;;1.20;1.10;;;23.20;46.70;;;;;;4936636;29;20666;-57
2022/07/08 04:34:25;;;;;;;1.40;1.30;;;23.20;46.70;;;;;;4938678;29;20183;-59
2022/07/08 04:36:50;;;;;;;1.30;1.20;;;23.20;46.70;;;;;;4936000;29;20429;-56
2022/07/08 04:39:16;;;;;;;1.10;1.00;;;23.20;46.70;;;;;;4939227;29;20331;-58
2022/07/08 04:41:42;;;;;;;1.20;1.10;;;23.20;46.70;;;;;;4925603;29;20724;-57
2022/07/08 04:44:07;;;;;;;1.20;1.10;;;23.20;46.70;;;;;;4938000;29;20186;-59
2022/07/08 04:46:33;;;;;;;1.63;1.47;;;23.20;46.70;;;;;;4937639;29;20603;-57
2022/07/08 04:48:58;;;;;;;1.40;1.30;;;23.20;46.70;;;;;;4936303;29;20190;-56
2022/07/08 04:51:24;;;;;;;1.20;1.10;;;23.10;46.60;;;;;;4935043;29;20181;-65
2022/07/08 04:53:50;;;;;;;1.50;1.40;;;23.10;46.60;;;;;;4937807;29;20214;-56
2022/07/08 04:56:16;;;;;;;1.13;1.03;;;23.10;46.50;;;;;;4934620;29;20182;-57
2022/07/08 04:58:42;;;;;;;1.40;1.30;;;23.20;46.70;;;;;;4939417;29;20700;-58
2022/07/08 05:01:08;;;;;;;1.20;1.10;;;23.20;46.60;;;;;;4935791;29;20504;-57
2022/07/08 05:03:33;;;;;;;1.20;1.10;;;23.20;46.60;;;;;;4936680;29;20214;-58
2022/07/08 05:05:59;;;;;;;1.10;1.10;;;23.20;46.70;;;;;;4938283;29;20185;-57
2022/07/08 05:08:25;;;;;;;1.40;1.30;;;23.20;46.60;;;;;;4934207;29;20265;-61
2022/07/08 05:10:51;;;;;;;1.40;1.30;;;23.20;46.70;;;;;;4934361;29;20521;-57
2022/07/08 05:13:17;;;;;;;1.10;1.00;;;23.10;46.50;;;;;;4939178;29;20210;-56
2022/07/08 05:15:44;;;;;;;1.10;1.10;;;23.20;46.60;;;;;;4935596;29;20484;-57
2022/07/08 05:18:10;;;;;;;1.30;1.20;;;23.20;46.70;;;;;;4935515;29;20191;-56
2022/07/08 05:20:36;;;;;;;1.10;1.10;;;23.10;46.60;;;;;;4940233;29;20460;-56
2022/07/08 05:23:03;;;;;;;1.00;1.00;;;23.20;46.60;;;;;;4932855;29;20496;-56
2022/07/08 05:25:30;;;;;;;1.30;1.20;;;23.10;46.60;;;;;;4934644;29;20189;-57
2022/07/08 05:27:55;;;;;;;1.40;1.30;;;23.20;46.60;;;;;;4937092;29;20994;-56
2022/07/08 05:30:21;;;;;;;1.30;1.20;;;23.20;46.70;;;;;;4934720;29;20424;-56
2022/07/08 05:32:47;;;;;;;1.40;1.30;;;23.10;46.50;;;;;;4935697;29;20844;-58
2022/07/08 05:35:13;;;;;;;1.50;1.40;;;23.20;46.60;;;;;;4934843;29;20183;-58
2022/07/08 05:37:40;;;;;;;1.30;1.20;;;23.20;46.60;;;;;;4935436;29;20262;-58
2022/07/08 05:40:08;;;;;;;1.37;1.27;;;23.20;46.60;;;;;;4937444;29;20175;-55
2022/07/08 05:42:34;;;;;;;1.30;1.20;;;23.20;46.60;;;;;;4915966;29;20909;-55
2022/07/08 05:45:00;;;;;;;1.40;1.30;;;23.10;46.50;;;;;;4935601;29;20428;-57
2022/07/08 05:47:25;;;;;;;1.57;1.47;;;23.20;46.60;;;;;;4935195;29;20253;-57
2022/07/08 05:49:51;;;;;;;1.40;1.30;;;23.20;46.90;;;;;;4937871;29;20637;-56
2022/07/08 05:52:18;;;;;;;1.30;1.20;;;23.20;46.60;;;;;;4935980;29;20642;-57
2022/07/08 05:54:45;;;;;;;1.30;1.20;;;23.10;46.60;;;;;;4936659;29;20218;-58
2022/07/08 05:57:11;;;;;;;1.30;1.20;;;23.10;46.60;;;;;;4932577;29;20444;-56
2022/07/08 05:59:37;;;;;;;1.50;1.40;;;23.10;46.60;;;;;;4936694;29;20937;-56
2022/07/08 06:02:03;;;;;;;1.17;1.07;;;23.20;46.70;;;;;;4934041;29;20516;-56
2022/07/08 06:04:29;;;;;;;1.30;1.20;;;23.10;46.50;;;;;;4938912;29;20507;-56
2022/07/08 06:06:54;;;;;;;1.33;1.23;;;23.20;46.70;;;;;;4935178;29;20513;-55
2022/07/08 06:09:21;;;;;;;1.23;1.13;;;23.20;46.70;;;;;;4935567;29;20191;-56
2022/07/08 06:11:46;;;;;;;1.20;1.10;;;23.10;47.30;;;;;;4934714;29;20195;-56
2022/07/08 06:14:12;;;;;;;1.37;1.27;;;23.10;46.60;;;;;;4937868;29;20479;-60
2022/07/08 06:16:38;;;;;;;1.30;1.20;;;23.20;46.60;;;;;;4935828;29;20175;-58
2022/07/08 06:19:04;;;;;;;1.30;1.20;;;23.10;46.60;;;;;;4940615;29;20436;-57
2022/07/08 06:21:30;;;;;;;1.40;1.30;;;23.20;46.70;;;;;;4945603;29;20223;-57
2022/07/08 06:23:56;;;;;;;1.07;0.97;;;23.10;46.50;;;;;;4936538;29;20257;-56
2022/07/08 06:26:23;;;;;;;1.10;1.10;;;23.10;46.50;;;;;;4938518;29;20190;-56
2022/07/08 06:28:49;;;;;;;1.40;1.30;;;23.10;46.50;;;;;;4941515;29;21490;-59
2022/07/08 06:31:15;;;;;;;1.40;1.30;;;23.20;46.70;;;;;;4937666;29;20435;-58
2022/07/08 06:33:40;;;;;;;1.27;1.17;;;23.20;46.60;;;;;;4940560;29;20464;-56
2022/07/08 06:36:07;;;;;;;1.53;1.43;;;23.20;46.60;;;;;;4943155;29;20706;-56
2022/07/08 06:38:33;;;;;;;1.27;1.17;;;23.20;46.60;;;;;;4939983;29;20598;-57
2022/07/08 06:40:59;;;;;;;1.40;1.30;;;23.10;46.70;;;;;;4941449;29;20454;-56
2022/07/08 06:43:24;;;;;;;1.40;1.30;;;23.20;46.70;;;;;;4939315;29;21041;-56
2022/07/08 06:45:51;;;;;;;1.30;1.20;;;23.10;46.50;;;;;;4936850;29;20198;-56
2022/07/08 06:48:18;;;;;;;1.40;1.30;;;23.10;46.50;;;;;;4937069;29;20536;-58
2022/07/08 06:50:43;;;;;;;1.30;1.20;;;23.20;46.60;;;;;;4935238;29;20269;-58
2022/07/08 06:53:09;;;;;;;1.37;1.27;;;23.20;46.60;;;;;;4938366;29;20544;-56
2022/07/08 06:55:35;;;;;;;1.40;1.30;;;23.10;46.50;;;;;;4937596;29;20194;-57
2022/07/08 06:58:00;;;;;;;1.30;1.20;;;23.20;46.70;;;;;;4937486;29;20250;-56
2022/07/08 07:00:27;;;;;;;1.50;1.40;;;23.10;46.60;;;;;;4937012;29;20590;-58
2022/07/08 07:02:54;;;;;;;1.57;1.47;;;23.20;46.60;;;;;;4936917;29;20203;-57
2022/07/08 07:05:20;;;;;;;1.43;1.33;;;23.10;46.50;;;;;;4939398;29;20424;-58
2022/07/08 07:07:47;;;;;;;1.40;1.30;;;23.10;46.50;;;;;;4932326;29;21004;-59
2022/07/08 07:10:13;;;;;;;1.87;1.77;;;23.10;46.60;;;;;;4935949;29;20428;-59
2022/07/08 07:12:38;;;;;;;1.40;1.30;;;23.20;46.70;;;;;;4937276;29;21212;-60
2022/07/08 07:15:05;;;;;;;1.50;1.40;;;23.20;46.60;;;;;;4936346;29;20835;-56
2022/07/08 07:17:31;;;;;;;1.40;1.30;;;23.20;46.60;;;;;;4937566;29;20183;-56
2022/07/08 07:19:58;;;;;;;1.70;1.60;;;23.20;46.60;;;;;;4938541;29;20429;-56
2022/07/08 07:22:23;;;;;;;1.33;1.23;;;23.20;46.60;;;;;;4937471;29;20438;-57
2022/07/08 07:24:49;;;;;;;1.40;1.30;;;23.10;46.50;;;;;;4932775;29;20437;-56
2022/07/08 07:27:14;;;;;;;1.50;1.40;;;23.20;47.30;;;;;;4936190;29;20185;-56
2022/07/08 07:29:41;;;;;;;1.30;1.20;;;23.10;46.50;;;;;;4937292;29;20214;-57
2022/07/08 07:32:08;;;;;;;1.30;1.20;;;23.10;46.50;;;;;;4939362;29;20618;-55
2022/07/08 07:34:33;;;;;;;1.73;1.60;;;23.20;46.60;;;;;;4939150;29;20429;-55
2022/07/08 07:36:59;;;;;;;1.67;1.30;;;23.10;46.50;;;;;;4935351;29;20451;-56
2022/07/08 07:39:25;;;;;;;1.30;1.10;;;23.20;46.60;;;;;;4939363;29;20253;-57
2022/07/08 07:41:51;;;;;;;1.37;1.27;;;23.20;46.60;;;;;;4938222;29;20936;-56
2022/07/08 07:44:17;;;;;;;1.40;1.30;;;23.20;46.60;;;;;;4939198;29;20280;-64
2022/07/08 07:46:43;;;;;;;1.30;1.20;;;23.10;46.50;;;;;;4940829;29;20246;-59
2022/07/08 07:49:08;;;;;;;1.33;1.23;;;23.20;46.50;;;;;;4941358;29;20186;-58
2022/07/08 07:51:34;;;;;;;1.30;1.20;;;23.20;46.60;;;;;;4936284;29;20474;-61
2022/07/08 07:54:00;;;;;;;1.20;1.10;;;23.20;46.50;;;;;;4935200;29;20229;-58
2022/07/08 07:56:26;;;;;;;1.27;1.17;;;23.10;46.40;;;;;;4942649;29;20214;-56
2022/07/08 07:58:52;;;;;;;1.20;1.10;;;23.20;46.60;;;;;;4936679;29;20182;-56
2022/07/08 08:01:18;;;;;;;1.50;1.40;;;23.20;46.50;;;;;;4941690;29;20186;-58
2022/07/08 08:03:43;;;;;;;1.30;1.20;;;23.20;46.50;;;;;;4936950;29;20597;-61
2022/07/08 08:06:09;;;;;;;1.43;1.33;;;23.10;46.50;;;;;;4938308;29;20947;-56
2022/07/08 08:08:36;;;;;;;1.40;1.30;;;23.20;46.60;;;;;;4937034;29;20642;-56
2022/07/08 08:11:03;;;;;;;1.50;1.40;;;23.10;46.50;;;;;;4936939;29;20179;-56
2022/07/08 08:13:29;;;;;;;1.60;1.50;;;23.20;46.60;;;;;;4943895;29;20514;-56
2022/07/08 08:15:56;;;;;;;1.40;1.30;;;23.10;46.50;;;;;;4937724;29;20431;-59
2022/07/08 08:18:23;;;;;;;1.40;1.30;;;23.20;46.60;;;;;;4937708;29;20946;-56
2022/07/08 08:20:49;;;;;;;1.30;1.20;;;23.20;46.60;;;;;;4937947;29;20504;-57
2022/07/08 08:23:15;;;;;;;1.73;1.17;;;23.20;46.60;;;;;;4934314;29;20895;-56
2022/07/08 08:25:42;;;;;;;1.33;1.23;;;23.20;46.60;;;;;;4931735;29;20254;-56
2022/07/08 08:28:08;;;;;;;1.50;1.40;;;23.20;46.60;;;;;;4936536;28;20436;-59
2022/07/08 08:30:34;;;;;;;1.50;1.40;;;23.20;46.50;;;;;;4939385;29;20965;-57
2022/07/08 08:33:00;;;;;;;1.53;1.43;;;23.20;46.60;;;;;;4938261;28;20479;-56
2022/07/08 08:35:26;;;;;;;1.57;1.47;;;23.20;46.60;;;;;;4933578;29;20453;-56
2022/07/08 08:37:52;;;;;;;1.40;1.30;;;23.20;46.50;;;;;;4936062;29;20198;-59
2022/07/08 08:40:21;;;;;;;1.40;1.30;;;23.20;46.60;;;;;;4933234;29;20441;-61
2022/07/08 08:42:47;;;;;;;1.50;1.40;;;23.20;46.60;;;;;;4931814;29;20539;-56
2022/07/08 08:45:13;;;;;;;1.33;1.23;;;23.20;46.60;;;;;;4934976;29;20484;-59
2022/07/08 08:47:39;;;;;;;1.50;1.40;;;23.20;46.50;;;;;;4933906;29;20476;-56
2022/07/08 08:52:55;;;;;;;1.30;1.20;;;23.20;46.50;;;;;;4936004;29;20503;-56
2022/07/08 08:55:27;;;;;;;1.60;1.50;;;23.20;46.60;;;;;;4935963;29;20543;-56
2022/07/08 08:58:05;;;;;;;1.60;1.50;;;23.20;46.60;;;;;;4934576;29;20436;-57
2022/07/08 09:00:32;;;;;;;1.43;1.33;;;23.20;46.50;;;;;;4935330;29;20436;-59
2022/07/08 09:02:59;;;;;;;1.50;1.40;;;23.20;46.60;;;;;;4938245;29;20433;-56
2022/07/08 09:05:25;;;;;;;1.57;1.47;;;23.20;46.60;;;;;;4934531;29;20437;-59
2022/07/08 09:07:51;;;;;;;1.57;1.40;;;23.20;46.50;;;;;;4937585;29;20484;-60
2022/07/08 09:10:18;;;;;;;1.60;1.50;;;23.20;46.60;;;;;;4934036;29;20432;-60
2022/07/08 09:13:05;;;;;;;1.37;1.27;;;23.20;46.50;;;;;;4935085;29;20457;-56
2022/07/08 09:15:36;;;;;;;1.60;1.50;;;23.20;46.50;;;;;;4932938;29;20438;-57
2022/07/08 09:18:05;;;;;;;1.50;1.40;;;23.20;46.60;;;;;;4933825;29;21058;-61
2022/07/08 09:20:50;;;;;;;1.40;1.30;;;23.20;46.50;;;;;;4935326;29;20476;-57
2022/07/08 09:23:30;;;;;;;1.60;1.50;;;23.20;46.50;;;;;;4938206;29;20442;-61
2022/07/08 09:26:02;;;;;;;1.60;1.50;;;23.20;46.50;;;;;;4936437;29;21020;-55
2022/07/08 09:28:34;;;;;;;1.73;1.63;;;23.20;46.60;;;;;;4934761;29;20457;-56
2022/07/08 09:31:03;;;;;;;1.47;1.37;;;23.20;46.50;;;;;;4934322;29;20425;-58
2022/07/08 09:33:29;;;;;;;1.60;1.50;;;23.20;46.60;;;;;;4933652;29;20467;-58
2022/07/08 09:36:00;;;;;;;1.60;1.50;;;23.20;46.50;;;;;;4938087;29;20499;-62
2022/07/08 09:38:26;;;;;;;1.40;1.30;;;23.20;46.50;;;;;;4938280;29;20563;-56
2022/07/08 09:41:02;;;;;;;1.50;1.40;;;23.20;46.50;;;;;;4937828;29;20437;-56
2022/07/08 09:43:28;;;;;;;1.60;1.50;;;23.20;46.50;;;;;;4934354;29;20495;-58
2022/07/08 09:46:02;;;;;;;1.60;1.50;;;23.20;46.50;;;;;;4935889;29;20449;-56
2022/07/08 09:48:29;;;;;;;1.40;1.30;;;23.20;46.50;;;;;;4932445;29;20979;-56
2022/07/08 09:50:55;;;;;;;1.53;1.43;;;23.20;46.60;;;;;;4938353;29;20502;-57
2022/07/08 09:53:24;;;;;;;1.67;1.57;;;23.20;46.50;;;;;;4933950;29;20540;-57
2022/07/08 09:55:51;;;;;;;1.40;1.30;;;23.20;46.50;;;;;;4932749;29;20471;-62
2022/07/08 09:58:26;;;;;;;1.43;1.33;;;23.20;46.50;;;;;;4934572;29;21091;-58
2022/07/08 10:00:53;;;;;;;1.40;1.30;;;23.20;46.50;;;;;;4934817;29;21149;-58
2022/07/08 10:03:20;;;;;;;1.57;1.47;;;23.20;46.50;;;;;;4931827;29;20492;-57
2022/07/08 10:05:47;;;;;;;1.40;1.30;;;23.20;46.50;;;;;;4933831;29;20795;-56
2022/07/08 10:08:14;;;;;;;1.60;1.50;;;23.20;46.50;;;;;;4919994;29;20433;-62
2022/07/08 10:10:43;;;;;;;1.40;1.30;;;23.20;46.40;;;;;;4932855;29;20459;-59
2022/07/08 10:13:09;;;;;;;1.50;1.40;;;23.20;46.40;;;;;;4934316;29;20476;-57
2022/07/08 10:15:37;;;;;;;1.63;1.53;;;23.20;46.50;;;;;;4932852;29;20528;-58
2022/07/08 10:18:08;;;;;;;1.47;1.37;;;23.20;46.50;;;;;;4934494;29;20234;-58
2022/07/08 10:20:38;;;;;;;1.37;1.30;;;23.20;46.40;;;;;;4938163;29;20420;-57
2022/07/08 10:23:10;;;;;;;1.40;1.30;;;23.20;47.20;;;;;;4934958;29;20425;-57
2022/07/08 10:25:37;;;;;;;1.67;1.40;;;23.20;46.40;;;;;;4934175;29;20464;-59
2022/07/08 10:28:08;;;;;;;1.40;1.30;;;23.20;46.50;;;;;;4935697;29;20479;-60
2022/07/08 10:30:50;;;;;;;1.40;1.30;;;23.20;46.50;;;;;;4934948;29;20428;-57
2022/07/08 10:33:19;;;;;;;1.40;1.30;;;23.20;46.40;;;;;;4935764;29;20508;-56
2022/07/08 10:36:04;;;;;;;1.67;1.57;;;23.20;46.40;;;;;;4930518;29;20477;-55
2022/07/08 10:38:33;;;;;;;1.50;1.40;;;23.20;46.40;;;;;;4936680;29;20525;-56
2022/07/08 10:41:06;;;;;;;2.00;1.70;;;23.20;46.50;;;;;;4937581;29;20432;-59
2022/07/08 10:43:31;;;;;;;1.47;1.37;;;23.20;46.40;;;;;;4935341;29;20472;-61
2022/07/08 10:46:17;;;;;;;1.40;1.30;;;23.20;46.50;;;;;;4933280;29;20958;-57
2022/07/08 10:48:50;;;;;;;1.40;1.30;;;23.20;46.50;;;;;;4938549;29;20278;-56
2022/07/08 10:51:18;;;;;;;1.60;1.50;;;23.20;46.50;;;;;;4930602;29;20924;-56
2022/07/08 10:53:48;;;;;;;1.40;1.30;;;23.20;46.50;;;;;;4934337;29;20500;-60
2022/07/08 10:56:56;;;;;;;1.57;1.47;;;23.20;46.40;;;;;;4939817;29;20444;-56
2022/07/08 10:59:23;;;;;;;1.33;1.23;;;23.20;46.50;;;;;;4935753;29;20461;-58
2022/07/08 11:01:56;;;;;;;1.30;1.20;;;23.20;46.50;;;;;;4940681;29;20437;-57
2022/07/08 11:04:25;;;;;;;1.83;1.23;;;23.20;46.50;;;;;;4936354;29;21134;-57
2022/07/08 11:06:53;;;;;;;1.50;1.40;;;23.20;46.50;;;;;;4941306;29;20507;-55
2022/07/08 11:09:20;;;;;;;1.40;1.30;;;23.20;46.50;;;;;;4934684;29;20900;-55
2022/07/08 11:11:46;;;;;;;1.50;1.40;;;23.20;46.50;;;;;;4935772;29;20895;-56
2022/07/08 11:14:16;;;;;;;1.50;1.40;;;23.20;46.50;;;;;;4941291;29;20453;-56
2022/07/08 11:16:42;;;;;;;1.53;1.43;;;23.20;46.50;;;;;;4941091;29;20512;-55
2022/07/08 11:19:08;;;;;;;1.70;1.60;;;23.20;46.40;;;;;;4938361;29;20428;-59
2022/07/08 11:21:34;;;;;;;1.60;1.50;;;23.20;46.50;;;;;;4936077;29;20437;-60
2022/07/08 11:24:00;;;;;;;1.50;1.40;;;23.20;46.40;;;;;;4935539;29;20201;-59
2022/07/08 11:26:26;;;;;;;1.47;1.37;;;23.20;46.50;;;;;;4938537;29;20798;-56
2022/07/08 11:28:52;;;;;;;1.50;1.40;;;23.20;46.50;;;;;;4938544;29;20432;-60
2022/07/08 11:31:26;;;;;;;1.47;1.37;;;23.20;46.40;;;;;;4940685;29;20273;-58
2022/07/08 11:33:52;;;;;;;1.50;1.40;;;23.20;46.50;;;;;;4937758;29;20212;-56
2022/07/08 11:36:19;;;;;;;1.47;1.37;;;23.20;46.40;;;;;;4938406;29;20429;-60
2022/07/08 11:38:46;;;;;;;1.63;1.53;;;23.20;46.40;;;;;;4934472;29;20191;-55
2022/07/08 11:41:13;;;;;;;1.60;1.50;;;23.20;46.40;;;;;;4941019;29;20421;-56
2022/07/08 11:43:39;;;;;;;1.40;1.30;;;23.20;46.40;;;;;;4941443;29;20998;-60
2022/07/08 11:46:15;;;;;;;1.50;1.40;;;23.20;46.40;;;;;;4937985;29;20441;-56
2022/07/08 11:48:41;;;;;;;1.30;1.20;;;23.20;46.40;;;;;;4937532;29;20667;-56
2022/07/08 11:51:06;;;;;;;1.60;1.50;;;23.20;46.40;;;;;;4937088;29;20436;-56
2022/07/08 11:53:32;;;;;;;2.50;1.50;;;23.20;46.50;;;;;;4936659;29;20743;-61
2022/07/08 11:55:58;;;;;;;1.53;1.43;;;23.20;46.50;;;;;;4936650;29;20195;-59
2022/07/08 11:58:25;;;;;;;1.47;1.37;;;23.20;46.50;;;;;;4937207;29;20184;-56
2022/07/08 12:00:51;;;;;;;1.50;1.40;;;23.20;46.40;;;;;;4937217;29;20197;-59
2022/07/08 12:03:18;;;;;;;1.33;1.23;;;23.20;46.40;;;;;;4940635;29;20792;-55
2022/07/08 12:05:47;;;;;;;1.60;1.50;;;23.20;46.50;;;;;;4935879;29;20238;-58
2022/07/08 12:08:13;;;;;;;1.40;1.30;;;23.20;46.50;;;;;;4940029;29;20436;-55
2022/07/08 12:10:39;;;;;;;1.70;1.60;;;23.20;46.50;;;;;;4934257;28;20477;-56
2022/07/08 12:13:04;;;;;;;1.50;1.40;;;23.20;46.50;;;;;;4934266;29;20473;-57
2022/07/08 12:15:35;;;;;;;1.40;1.30;;;23.20;46.50;;;;;;4940850;29;20249;-57
2022/07/08 12:18:01;;;;;;;1.50;1.40;;;23.20;46.50;;;;;;4940445;29;20182;-56
2022/07/08 12:20:38;;;;;;;1.60;1.50;;;23.20;47.20;;;;;;4936338;29;20445;-58
2022/07/08 12:23:04;;;;;;;3.80;1.80;;;23.20;46.40;;;;;;4937564;29;20444;-58
2022/07/08 12:25:47;;;;;;;1.77;1.67;;;23.20;46.50;;;;;;4936668;29;20421;-56
2022/07/08 12:28:13;;;;;;;1.67;1.57;;;23.20;46.50;;;;;;4937574;29;20483;-56
2022/07/08 12:30:39;;;;;;;1.40;1.30;;;23.20;46.50;;;;;;4935481;29;20920;-62
2022/07/08 12:33:05;;;;;;;1.90;1.80;;;23.20;46.50;;;;;;4937779;29;20285;-57
2022/07/08 12:35:34;;;;;;;1.40;1.30;;;23.20;46.50;;;;;;4937315;29;20575;-56
2022/07/08 12:38:05;;;;;;;1.80;1.70;;;23.20;46.50;;;;;;4934588;29;20268;-57
2022/07/08 12:40:42;;;;;;;1.90;1.80;;;23.20;46.60;;;;;;4933719;29;20443;-58
2022/07/08 12:43:14;;;;;;;1.60;1.50;;;23.20;46.50;;;;;;4936410;29;20520;-55
2022/07/08 12:45:40;;;;;;;1.63;1.53;;;23.20;46.50;;;;;;4938597;29;20466;-56
2022/07/08 12:48:06;;;;;;;1.43;1.33;;;23.20;46.60;;;;;;4933794;29;20544;-56
2022/07/08 12:50:33;;;;;;;1.47;1.37;;;23.20;46.50;;;;;;4937950;29;20520;-59
2022/07/08 12:53:00;;;;;;;1.50;1.40;;;23.20;46.50;;;;;;4938496;29;20203;-59
2022/07/08 12:55:26;;;;;;;1.47;1.37;;;23.20;46.50;;;;;;4939058;29;20437;-58